createdAt,value
2023-01-13T00:01:07.849Z,14.30
2023-01-13T00:11:32.913Z,14.30
2023-01-13T00:21:54.495Z,14.30
2023-01-13T00:32:18.201Z,14.40
2023-01-13T00:42:56.906Z,14.40
2023-01-13T00:53:19.867Z,14.30
2023-01-13T01:03:42.557Z,14.30
2023-01-13T01:14:06.777Z,14.50
2023-01-13T01:24:28.465Z,14.50
2023-01-13T01:34:53.325Z,14.60
2023-01-13T01:45:19.267Z,14.60
2023-01-13T01:55:43.155Z,14.60
2023-01-13T02:06:04.844Z,14.70
2023-01-13T02:16:27.937Z,14.80
2023-01-13T02:27:19.939Z,14.80
2023-01-13T02:37:45.696Z,14.70
2023-01-13T02:48:10.048Z,14.60
2023-01-13T02:58:35.047Z,14.60
2023-01-13T03:09:04.498Z,14.70
2023-01-13T03:19:37.280Z,14.60
2023-01-13T03:30:02.719Z,14.70
2023-01-13T03:40:31.011Z,14.70
2023-01-13T03:50:54.978Z,14.60
2023-01-13T04:01:21.277Z,14.50
2023-01-13T04:11:47.728Z,14.50
2023-01-13T04:22:10.459Z,14.50
2023-01-13T04:32:32.086Z,14.50
2023-01-13T04:42:54.807Z,14.40
2023-01-13T04:53:16.239Z,14.40
2023-01-13T05:03:38.856Z,14.70
2023-01-13T05:14:17.597Z,14.70
2023-01-13T05:24:58.270Z,14.70
2023-01-13T05:35:20.304Z,14.70
2023-01-13T05:45:43.181Z,14.70
2023-01-13T05:56:06.998Z,14.70
2023-01-13T06:06:29.920Z,14.60
2023-01-13T06:16:51.435Z,14.60
2023-01-13T06:27:14.314Z,14.60
2023-01-13T06:37:36.999Z,15.00
2023-01-13T06:48:00.796Z,14.80
2023-01-13T06:58:22.096Z,14.70
2023-01-13T07:08:44.835Z,14.90
2023-01-13T07:19:06.138Z,15.10
2023-01-13T07:29:28.819Z,14.90
2023-01-13T07:39:50.699Z,14.70
2023-01-13T07:50:13.676Z,14.50
2023-01-13T08:00:34.920Z,14.20
2023-01-13T08:10:59.974Z,14.20
2023-01-13T08:21:21.572Z,14.20
2023-01-13T08:31:44.858Z,14.20
2023-01-13T08:42:07.186Z,14.30
2023-01-13T08:52:30.466Z,14.50
2023-01-13T09:02:53.227Z,14.50
2023-01-13T09:13:17.067Z,14.40
2023-01-13T09:23:39.641Z,14.20
2023-01-13T09:34:23.947Z,14.20
2023-01-13T09:44:50.797Z,14.10
2023-01-13T09:55:19.331Z,13.90
2023-01-13T10:05:43.569Z,13.80
2023-01-13T10:16:25.404Z,13.70
2023-01-13T10:26:55.853Z,13.80
2023-01-13T10:37:25.846Z,13.80
2023-01-13T10:48:07.589Z,14.00
2023-01-13T10:58:31.707Z,14.00
2023-01-13T11:08:58.125Z,14.30
2023-01-13T11:19:23.623Z,14.60
2023-01-13T11:29:58.666Z,14.80
2023-01-13T11:40:28.516Z,15.00
2023-01-13T11:50:55.734Z,15.20
2023-01-13T12:01:34.213Z,15.20
2023-01-13T12:12:22.881Z,15.40
2023-01-13T12:22:48.730Z,15.30
2023-01-13T12:33:22.199Z,15.20
2023-01-13T12:44:06.303Z,15.10
2023-01-13T12:55:09.897Z,15.30
2023-01-13T13:05:56.844Z,15.30
2023-01-13T13:16:52.518Z,15.20
2023-01-13T13:27:20.174Z,15.20
2023-01-13T13:38:16.845Z,15.00
2023-01-13T13:48:39.972Z,15.20
2023-01-13T13:59:01.665Z,15.10
2023-01-13T14:09:26.833Z,15.00
2023-01-13T14:19:53.687Z,14.70
2023-01-13T14:30:20.187Z,14.60
2023-01-13T14:40:46.813Z,14.60
2023-01-13T14:51:13.958Z,14.40
2023-01-13T15:01:39.422Z,14.10
2023-01-13T15:12:16.649Z,14.10
2023-01-13T15:22:38.036Z,13.90
2023-01-13T15:33:00.986Z,13.90
2023-01-13T15:43:41.176Z,13.60
2023-01-13T15:54:04.519Z,13.60
2023-01-13T16:04:26.229Z,13.50
2023-01-13T16:14:49.647Z,13.50
2023-01-13T16:25:17.627Z,13.50
2023-01-13T16:35:43.836Z,13.50
2023-01-13T16:46:25.585Z,13.20
2023-01-13T16:56:48.296Z,12.90
2023-01-13T17:07:10.841Z,12.90
2023-01-13T17:17:34.057Z,12.80
2023-01-13T17:27:55.840Z,13.00
2023-01-13T17:38:18.705Z,13.10
2023-01-13T17:48:40.368Z,13.10
2023-01-13T17:59:03.437Z,13.10
2023-01-13T18:09:25.952Z,13.10
2023-01-13T18:20:06.307Z,13.00
2023-01-13T18:30:28.169Z,12.90
2023-01-13T18:40:51.053Z,12.90
2023-01-13T18:51:12.817Z,12.90
2023-01-13T19:01:37.856Z,13.00
2023-01-13T19:12:01.189Z,13.20
2023-01-13T19:22:27.392Z,13.30
2023-01-13T19:32:49.540Z,13.30
2023-01-13T19:43:29.844Z,13.30
2023-01-13T19:53:51.315Z,13.20
2023-01-13T20:04:17.069Z,12.90
2023-01-13T20:14:38.741Z,12.80
2023-01-13T20:25:01.737Z,12.80
2023-01-13T20:35:24.316Z,12.90
2023-01-13T20:45:47.153Z,13.00
2023-01-13T20:56:09.479Z,13.00
2023-01-13T21:06:33.039Z,13.00
2023-01-13T21:16:54.359Z,12.90
2023-01-13T21:27:17.695Z,12.70
2023-01-13T21:37:41.996Z,12.40
2023-01-13T21:48:05.119Z,12.60
2023-01-13T21:58:27.239Z,12.70
2023-01-13T22:08:50.417Z,12.60
2023-01-13T22:19:12.246Z,12.60
2023-01-13T22:29:37.604Z,12.60
2023-01-13T22:39:59.222Z,12.50
2023-01-13T22:50:22.759Z,12.30
2023-01-13T23:00:44.425Z,12.00
2023-01-13T23:11:12.151Z,11.90
2023-01-13T23:21:36.045Z,12.00
2023-01-13T23:31:59.333Z,12.00
2023-01-13T23:42:21.357Z,12.00
2023-01-13T23:52:44.458Z,12.20
